createdAt,value
2023-01-02T00:01:08.583Z,72.63
2023-01-02T00:06:14.980Z,49.90
2023-01-02T00:11:21.178Z,51.03
2023-01-02T00:16:27.620Z,56.72
2023-01-02T00:21:33.793Z,42.90
2023-01-02T00:26:40.311Z,66.13
2023-01-02T00:36:52.057Z,58.92
2023-01-02T00:41:58.315Z,57.27
2023-01-02T00:47:04.571Z,87.82
2023-01-02T00:52:10.715Z,101.30
2023-01-02T00:57:16.695Z,106.75
2023-01-02T01:02:22.967Z,88.57
2023-01-02T01:07:28.826Z,92.75
2023-01-02T01:12:34.751Z,59.50
2023-01-02T01:17:40.592Z,75.85
2023-01-02T01:22:46.871Z,68.07
2023-01-02T01:27:56.127Z,70.22
2023-01-02T01:33:02.882Z,51.70
2023-01-02T01:38:09.147Z,62.58
2023-01-02T01:43:18.196Z,60.40
2023-01-02T01:48:26.314Z,62.80
2023-01-02T01:53:32.359Z,59.10
2023-01-02T01:58:46.503Z,48.70
2023-01-02T02:03:54.201Z,49.28
2023-01-02T02:09:10.006Z,47.28
2023-01-02T02:14:16.769Z,43.80
2023-01-02T02:19:48.217Z,47.63
2023-01-02T02:25:21.378Z,43.38
2023-01-02T02:30:43.241Z,43.97
2023-01-02T02:36:41.467Z,44.60
2023-01-02T02:42:10.357Z,46.67
2023-01-02T02:47:22.546Z,64.70
2023-01-02T02:52:34.861Z,64.47
2023-01-02T02:57:41.907Z,61.13
2023-01-02T03:02:47.912Z,45.58
2023-01-02T03:08:00.276Z,43.20
2023-01-02T03:13:13.501Z,45.40
2023-01-02T03:18:22.964Z,36.15
2023-01-02T03:23:31.233Z,39.50
2023-01-02T03:28:38.733Z,44.40
2023-01-02T03:33:46.874Z,41.13
2023-01-02T03:39:16.260Z,34.22
2023-01-02T03:44:25.466Z,33.25
2023-01-02T03:49:41.815Z,41.75
2023-01-02T03:54:48.149Z,28.07
2023-01-02T04:00:09.552Z,20.40
2023-01-02T04:05:24.065Z,44.83
2023-01-02T04:10:31.628Z,31.55
2023-01-02T04:15:39.023Z,33.17
2023-01-02T04:20:47.843Z,46.22
2023-01-02T04:25:57.859Z,42.13
2023-01-02T04:31:24.255Z,46.30
2023-01-02T04:36:30.821Z,47.05
2023-01-02T04:41:37.312Z,46.50
2023-01-02T04:51:48.873Z,43.65
2023-01-02T04:56:55.370Z,44.80
2023-01-02T05:02:01.694Z,47.33
2023-01-02T05:07:08.473Z,45.85
2023-01-02T05:12:15.585Z,41.95
2023-01-02T05:17:22.029Z,50.30
2023-01-02T05:22:46.220Z,44.20
2023-01-02T05:27:59.256Z,28.77
2023-01-02T05:33:07.396Z,34.63
2023-01-02T05:38:17.385Z,50.35
2023-01-02T05:43:26.261Z,46.45
2023-01-02T05:48:32.858Z,30.70
2023-01-02T05:58:54.605Z,45.25
2023-01-02T06:04:05.175Z,41.88
2023-01-02T06:09:11.667Z,41.83
2023-01-02T06:14:21.634Z,42.90
2023-01-02T06:19:33.242Z,34.90
2023-01-02T06:24:44.991Z,44.60
2023-01-02T06:30:05.060Z,42.58
2023-01-02T06:35:14.974Z,36.00
2023-01-02T06:40:21.391Z,36.28
2023-01-02T06:45:28.804Z,36.45
2023-01-02T06:50:36.437Z,36.95
2023-01-02T06:55:56.735Z,30.63
2023-01-02T07:01:14.538Z,27.00
2023-01-02T07:06:23.329Z,22.95
2023-01-02T07:11:30.231Z,23.58
2023-01-02T07:16:38.807Z,33.58
2023-01-02T07:21:48.466Z,40.63
2023-01-02T07:26:55.132Z,17.05
2023-01-02T07:32:02.599Z,46.30
2023-01-02T07:37:08.970Z,31.10
2023-01-02T07:42:15.232Z,43.75
2023-01-02T07:52:26.953Z,31.35
2023-01-02T07:57:33.696Z,35.92
2023-01-02T08:02:39.883Z,33.00
2023-01-02T08:07:51.326Z,28.02
2023-01-02T08:12:59.677Z,20.60
2023-01-02T08:18:05.575Z,21.98
2023-01-02T08:23:12.115Z,13.38
2023-01-02T08:28:18.839Z,38.35
2023-01-02T08:33:26.853Z,22.90
2023-01-02T08:38:32.854Z,42.35
2023-01-02T08:43:39.681Z,33.78
2023-01-02T08:48:46.414Z,21.98
2023-01-02T08:53:52.387Z,41.78
2023-01-02T08:59:05.544Z,35.30
2023-01-02T09:04:13.308Z,28.00
2023-01-02T09:09:20.577Z,40.83
2023-01-02T09:19:31.829Z,38.00
2023-01-02T09:24:38.504Z,24.42
2023-01-02T09:29:44.686Z,17.65
2023-01-02T09:34:52.061Z,21.45
2023-01-02T09:39:58.532Z,24.98
2023-01-02T09:45:08.839Z,29.58
2023-01-02T09:50:25.889Z,34.17
2023-01-02T09:55:35.064Z,34.05
2023-01-02T10:00:41.887Z,38.45
2023-01-02T10:06:03.648Z,35.13
2023-01-02T10:11:15.527Z,38.60
2023-01-02T10:16:23.284Z,34.03
2023-01-02T10:21:31.737Z,27.70
2023-01-02T10:26:39.543Z,39.83
2023-01-02T10:31:49.140Z,34.20
2023-01-02T10:36:55.480Z,34.33
2023-01-02T10:42:02.669Z,44.30
2023-01-02T10:47:26.847Z,39.15
2023-01-02T10:52:36.083Z,38.95
2023-01-02T10:57:42.000Z,40.75
2023-01-02T11:02:53.802Z,44.97
2023-01-02T11:08:00.587Z,43.35
2023-01-02T11:13:08.156Z,41.97
2023-01-02T11:18:15.531Z,41.20
2023-01-02T11:23:24.513Z,34.75
2023-01-02T11:28:31.990Z,33.85
2023-01-02T11:33:39.842Z,42.08
2023-01-02T11:38:56.332Z,29.63
2023-01-02T11:44:04.042Z,35.65
2023-01-02T11:49:14.406Z,32.10
2023-01-02T11:54:24.960Z,40.47
2023-01-02T11:59:31.169Z,36.17
2023-01-02T12:04:42.040Z,32.22
2023-01-02T12:10:16.725Z,37.17
2023-01-02T12:15:49.299Z,33.20
2023-01-02T12:21:10.823Z,34.15
2023-01-02T12:26:22.557Z,32.30
2023-01-02T12:31:43.651Z,32.05
2023-01-02T12:37:21.306Z,30.85
2023-01-02T12:42:34.418Z,32.23
2023-01-02T12:47:49.219Z,30.52
2023-01-02T12:53:06.528Z,31.65
2023-01-02T12:58:30.074Z,28.38
2023-01-02T13:03:49.121Z,31.98
2023-01-02T13:09:05.803Z,36.20
2023-01-02T13:14:26.069Z,33.03
2023-01-02T13:20:01.156Z,38.00
2023-01-02T13:25:22.420Z,29.85
2023-01-02T13:30:44.585Z,30.95
2023-01-02T13:36:04.316Z,29.75
2023-01-02T13:41:23.858Z,32.30
2023-01-02T13:52:13.468Z,25.45
2023-01-02T13:57:36.559Z,29.15
2023-01-02T14:03:13.562Z,31.75
2023-01-02T14:08:37.152Z,22.20
2023-01-02T14:13:51.748Z,17.10
2023-01-02T14:19:18.494Z,29.95
2023-01-02T14:24:48.190Z,20.73
2023-01-02T14:30:08.384Z,25.33
2023-01-02T14:35:22.916Z,29.65
2023-01-02T14:40:34.743Z,27.85
2023-01-02T14:51:15.309Z,23.70
2023-01-02T14:56:23.684Z,29.98
2023-01-02T15:01:44.222Z,27.05
2023-01-02T15:06:55.014Z,27.13
2023-01-02T15:12:30.455Z,29.52
2023-01-02T15:17:40.815Z,21.15
2023-01-02T15:22:53.947Z,29.35
2023-01-02T15:29:03.621Z,25.10
2023-01-02T15:34:10.296Z,29.90
2023-01-02T15:39:23.113Z,27.45
2023-01-02T15:44:57.899Z,28.58
2023-01-02T15:50:13.660Z,33.28
2023-01-02T15:55:22.175Z,31.23
2023-01-02T16:00:47.817Z,30.73
2023-01-02T16:05:58.878Z,39.30
2023-01-02T16:11:06.158Z,33.88
2023-01-02T16:16:15.970Z,38.28
2023-01-02T16:21:23.492Z,35.10
2023-01-02T16:31:53.493Z,33.92
2023-01-02T16:37:17.486Z,37.17
2023-01-02T16:42:38.508Z,31.73
2023-01-02T16:47:46.007Z,28.88
2023-01-02T16:52:52.729Z,32.85
2023-01-02T16:57:58.628Z,32.60
2023-01-02T17:03:05.265Z,23.00
2023-01-02T17:08:11.666Z,35.45
2023-01-02T17:13:18.341Z,33.05
2023-01-02T17:23:30.917Z,37.85
2023-01-02T17:28:38.468Z,38.35
2023-01-02T17:33:44.709Z,31.48
2023-01-02T17:38:54.355Z,32.90
2023-01-02T17:49:08.930Z,44.75
2023-01-02T17:54:16.053Z,41.30
2023-01-02T17:59:22.593Z,26.08
2023-01-02T18:09:34.590Z,29.17
2023-01-02T18:19:47.486Z,33.58
2023-01-02T18:24:53.804Z,38.67
2023-01-02T18:35:55.439Z,33.13
2023-01-02T18:40:49.589Z,31.38
2023-01-02T18:51:03.418Z,32.07
2023-01-02T18:56:20.235Z,38.95
2023-01-02T19:01:33.236Z,30.10
2023-01-02T19:06:49.728Z,34.40
2023-01-02T19:12:16.225Z,34.72
2023-01-02T19:17:22.569Z,28.17
2023-01-02T19:27:39.655Z,39.53
2023-01-02T19:32:46.151Z,28.67
2023-01-02T19:42:58.071Z,39.25
2023-01-02T19:53:09.728Z,37.72
2023-01-02T19:58:15.479Z,36.47
2023-01-02T20:03:21.309Z,43.27
2023-01-02T20:08:27.316Z,38.27
2023-01-02T20:13:33.511Z,38.95
2023-01-02T20:18:39.477Z,42.60
2023-01-02T20:23:48.138Z,36.95
2023-01-02T20:28:58.035Z,38.95
2023-01-02T20:34:04.722Z,44.35
2023-01-02T20:39:10.508Z,38.05
2023-01-02T20:44:17.051Z,29.00
2023-01-02T20:49:23.223Z,44.47
2023-01-02T20:54:29.996Z,46.65
2023-01-02T21:04:41.493Z,42.40
2023-01-02T21:09:47.614Z,42.97
2023-01-02T21:19:59.227Z,27.10
2023-01-02T21:25:04.923Z,37.47
2023-01-02T21:30:11.714Z,37.80
2023-01-02T21:35:17.439Z,33.00
2023-01-02T21:40:23.650Z,37.10
2023-01-02T21:45:30.321Z,29.63
2023-01-02T21:50:37.151Z,30.67
2023-01-02T21:55:43.295Z,36.97
2023-01-02T22:00:49.332Z,36.35
2023-01-02T22:05:55.573Z,29.40
2023-01-02T22:11:21.872Z,33.35
2023-01-02T22:16:28.007Z,36.35
2023-01-02T22:21:33.956Z,34.50
2023-01-02T22:26:41.772Z,38.20
2023-01-02T22:31:48.221Z,35.67
2023-01-02T22:36:55.693Z,36.63
2023-01-02T22:47:45.426Z,32.38
2023-01-02T22:52:52.199Z,37.47
2023-01-02T22:57:58.369Z,35.03
2023-01-02T23:03:04.231Z,35.30
2023-01-02T23:08:11.075Z,36.08
2023-01-02T23:13:17.436Z,40.70
2023-01-02T23:18:41.591Z,41.67
2023-01-02T23:23:48.112Z,30.00
2023-01-02T23:29:06.398Z,40.30
2023-01-02T23:34:13.696Z,38.22
2023-01-02T23:39:21.516Z,39.38
2023-01-02T23:44:28.260Z,34.80
2023-01-02T23:49:34.453Z,42.45
2023-01-02T23:54:41.038Z,38.92
2023-01-02T23:59:47.391Z,43.47
